createdAt,value
2023-01-01T00:01:40.541Z,11.84
2023-01-01T00:04:12.558Z,11.83
2023-01-01T00:06:41.818Z,11.78
2023-01-01T00:09:27.016Z,11.70
2023-01-01T00:11:54.764Z,11.72
2023-01-01T00:14:22.534Z,11.70
2023-01-01T00:16:50.428Z,11.65
2023-01-01T00:19:18.380Z,11.65
2023-01-01T00:21:47.459Z,11.62
2023-01-01T00:24:15.655Z,11.66
2023-01-01T00:26:43.359Z,11.57
2023-01-01T00:29:11.492Z,11.61
2023-01-01T00:31:39.252Z,11.60
2023-01-01T00:34:07.069Z,11.59
2023-01-01T00:36:34.720Z,11.56
2023-01-01T00:39:04.628Z,11.52
2023-01-01T00:41:32.246Z,11.39
2023-01-01T00:44:00.205Z,11.55
2023-01-01T00:46:27.964Z,11.70
2023-01-01T00:48:55.604Z,11.60
2023-01-01T00:51:23.226Z,11.56
2023-01-01T00:53:51.112Z,11.63
2023-01-01T00:56:20.047Z,11.67
2023-01-01T00:59:01.153Z,11.65
2023-01-01T01:01:29.792Z,11.56
2023-01-01T01:03:57.484Z,11.55
2023-01-01T01:06:25.243Z,11.54
2023-01-01T01:08:52.929Z,11.55
2023-01-01T01:11:23.716Z,11.62
2023-01-01T01:13:53.324Z,11.72
2023-01-01T01:16:23.687Z,11.70
2023-01-01T01:18:52.562Z,11.71
2023-01-01T01:21:22.662Z,11.73
2023-01-01T01:23:50.620Z,11.81
2023-01-01T01:26:19.862Z,11.84
2023-01-01T01:28:50.199Z,11.78
2023-01-01T01:31:18.277Z,11.81
2023-01-01T01:33:46.993Z,11.84
2023-01-01T01:36:15.795Z,11.86
2023-01-01T01:38:43.770Z,11.89
2023-01-01T01:41:26.126Z,11.89
2023-01-01T01:43:58.370Z,11.92
2023-01-01T01:46:30.565Z,12.01
2023-01-01T01:49:02.140Z,12.01
2023-01-01T01:51:34.030Z,11.87
2023-01-01T01:54:04.331Z,11.96
2023-01-01T01:56:37.222Z,11.95
2023-01-01T01:59:06.834Z,12.03
2023-01-01T02:01:34.547Z,11.98
2023-01-01T02:04:03.086Z,11.95
2023-01-01T02:06:32.663Z,11.96
2023-01-01T02:09:03.302Z,12.01
2023-01-01T02:11:31.352Z,12.02
2023-01-01T02:14:00.341Z,12.02
2023-01-01T02:16:35.026Z,12.01
2023-01-01T02:19:09.009Z,12.03
2023-01-01T02:21:40.731Z,12.08
2023-01-01T02:24:24.982Z,11.98
2023-01-01T02:26:56.764Z,11.91
2023-01-01T02:29:31.724Z,11.94
2023-01-01T02:32:02.993Z,11.87
2023-01-01T02:34:34.961Z,11.80
2023-01-01T02:37:04.459Z,11.73
2023-01-01T02:39:35.762Z,11.72
2023-01-01T02:42:04.525Z,11.79
2023-01-01T02:44:36.464Z,11.63
2023-01-01T02:47:08.807Z,11.63
2023-01-01T02:49:39.516Z,11.61
2023-01-01T02:52:11.045Z,11.53
2023-01-01T02:54:44.852Z,11.55
2023-01-01T02:57:16.986Z,11.54
2023-01-01T03:00:13.731Z,11.54
2023-01-01T03:02:51.554Z,11.53
2023-01-01T03:05:24.553Z,11.53
2023-01-01T03:08:01.967Z,11.50
2023-01-01T03:10:36.060Z,11.48
2023-01-01T03:13:09.093Z,11.42
2023-01-01T03:15:42.491Z,11.46
2023-01-01T03:18:15.157Z,11.38
2023-01-01T03:20:46.895Z,11.37
2023-01-01T03:23:20.110Z,11.40
2023-01-01T03:25:51.125Z,11.45
2023-01-01T03:28:22.595Z,11.35
2023-01-01T03:30:53.533Z,11.26
2023-01-01T03:33:25.190Z,11.29
2023-01-01T03:35:55.613Z,11.28
2023-01-01T03:38:26.929Z,11.24
2023-01-01T03:40:58.908Z,11.27
2023-01-01T03:43:35.207Z,11.22
2023-01-01T03:46:05.351Z,11.25
2023-01-01T03:49:00.222Z,11.23
2023-01-01T03:51:38.923Z,11.25
2023-01-01T03:54:10.008Z,11.19
2023-01-01T03:56:40.888Z,11.23
2023-01-01T03:59:14.075Z,11.16
2023-01-01T04:01:46.075Z,11.23
2023-01-01T04:04:14.227Z,11.18
2023-01-01T04:06:41.849Z,11.15
2023-01-01T04:09:13.164Z,11.22
2023-01-01T04:12:00.730Z,11.15
2023-01-01T04:14:29.521Z,11.14
2023-01-01T04:16:59.000Z,11.20
2023-01-01T04:19:27.067Z,11.10
2023-01-01T04:21:54.650Z,11.17
2023-01-01T04:24:23.371Z,11.15
2023-01-01T04:26:51.275Z,11.13
2023-01-01T04:29:19.333Z,11.13
2023-01-01T04:31:47.692Z,11.08
2023-01-01T04:34:17.099Z,11.14
2023-01-01T04:36:44.761Z,11.12
2023-01-01T04:39:12.540Z,11.13
2023-01-01T04:41:40.180Z,11.11
2023-01-01T04:44:07.910Z,11.21
2023-01-01T04:46:35.618Z,11.30
2023-01-01T04:49:03.185Z,11.41
2023-01-01T04:51:32.098Z,11.41
2023-01-01T04:54:00.149Z,11.45
2023-01-01T04:56:27.774Z,11.49
2023-01-01T04:58:57.111Z,11.50
2023-01-01T05:01:26.712Z,11.43
2023-01-01T05:03:54.749Z,11.40
2023-01-01T05:06:22.958Z,11.46
2023-01-01T05:08:54.503Z,11.47
2023-01-01T05:11:23.579Z,11.42
2023-01-01T05:13:53.489Z,11.48
2023-01-01T05:16:24.411Z,11.43
2023-01-01T05:18:52.449Z,11.44
2023-01-01T05:21:21.785Z,11.45
2023-01-01T05:23:49.713Z,11.37
2023-01-01T05:26:20.758Z,11.40
2023-01-01T05:28:49.087Z,11.32
2023-01-01T05:31:18.729Z,11.38
2023-01-01T05:33:46.476Z,11.28
2023-01-01T05:36:17.100Z,11.28
2023-01-01T05:38:45.017Z,11.29
2023-01-01T05:41:15.564Z,11.18
2023-01-01T05:43:44.761Z,11.21
2023-01-01T05:46:13.944Z,11.26
2023-01-01T05:48:41.625Z,11.24
2023-01-01T05:51:10.793Z,11.27
2023-01-01T05:53:38.624Z,11.27
2023-01-01T05:56:07.077Z,11.24
2023-01-01T05:58:35.998Z,11.24
2023-01-01T06:01:09.852Z,11.31
2023-01-01T06:03:37.889Z,11.24
2023-01-01T06:06:07.139Z,11.30
2023-01-01T06:08:35.161Z,11.38
2023-01-01T06:11:04.055Z,11.32
2023-01-01T06:13:32.038Z,11.36
2023-01-01T06:16:01.237Z,11.36
2023-01-01T06:18:32.246Z,11.36
2023-01-01T06:21:05.439Z,11.32
2023-01-01T06:23:33.264Z,11.27
2023-01-01T06:26:06.242Z,11.40
2023-01-01T06:28:33.959Z,11.43
2023-01-01T06:31:02.156Z,11.41
2023-01-01T06:33:31.854Z,11.47
2023-01-01T06:36:00.042Z,11.34
2023-01-01T06:38:27.630Z,11.30
2023-01-01T06:40:59.462Z,11.37
2023-01-01T06:43:27.554Z,11.28
2023-01-01T06:46:02.845Z,11.31
2023-01-01T06:48:33.157Z,11.28
2023-01-01T06:51:06.718Z,11.31
2023-01-01T06:53:34.367Z,11.35
2023-01-01T06:56:01.984Z,11.23
2023-01-01T06:58:29.672Z,11.14
2023-01-01T07:01:08.375Z,11.18
2023-01-01T07:03:38.563Z,11.12
2023-01-01T07:06:07.168Z,11.11
2023-01-01T07:08:35.070Z,11.16
2023-01-01T07:11:03.143Z,11.06
2023-01-01T07:13:31.681Z,11.11
2023-01-01T07:15:59.530Z,11.06
2023-01-01T07:18:27.227Z,11.12
2023-01-01T07:20:57.624Z,11.10
2023-01-01T07:23:25.935Z,10.99
2023-01-01T07:25:54.441Z,11.09
2023-01-01T07:28:22.870Z,11.05
2023-01-01T07:30:50.806Z,10.97
2023-01-01T07:33:19.895Z,10.94
2023-01-01T07:35:47.504Z,10.99
2023-01-01T07:38:17.036Z,11.01
2023-01-01T07:40:44.664Z,11.05
2023-01-01T07:43:14.139Z,11.00
2023-01-01T07:45:41.951Z,10.99
2023-01-01T07:48:12.143Z,10.97
2023-01-01T07:50:39.752Z,10.81
2023-01-01T07:53:07.497Z,10.95
2023-01-01T07:55:36.444Z,10.97
2023-01-01T07:58:04.211Z,10.94
2023-01-01T08:00:31.875Z,10.92
2023-01-01T08:02:59.666Z,11.03
2023-01-01T08:05:27.495Z,11.04
2023-01-01T08:07:56.048Z,10.99
2023-01-01T08:10:23.822Z,11.17
2023-01-01T08:12:52.786Z,11.06
2023-01-01T08:15:20.444Z,11.06
2023-01-01T08:17:48.052Z,11.07
2023-01-01T08:20:15.888Z,11.09
2023-01-01T08:22:43.575Z,11.07
2023-01-01T08:25:11.122Z,11.14
2023-01-01T08:27:39.115Z,11.11
2023-01-01T08:30:09.851Z,11.15
2023-01-01T08:32:37.459Z,11.21
2023-01-01T08:35:05.759Z,11.26
2023-01-01T08:37:33.525Z,11.38
2023-01-01T08:40:01.229Z,11.34
2023-01-01T08:42:28.889Z,11.48
2023-01-01T08:44:56.557Z,11.44
2023-01-01T08:47:27.300Z,11.46
2023-01-01T08:49:55.104Z,11.56
2023-01-01T08:52:23.165Z,11.50
2023-01-01T08:54:50.763Z,11.49
2023-01-01T08:57:18.432Z,11.57
2023-01-01T08:59:46.063Z,11.56
2023-01-01T09:02:13.987Z,11.46
2023-01-01T09:04:43.286Z,11.57
2023-01-01T09:07:10.944Z,11.57
2023-01-01T09:09:38.544Z,11.63
2023-01-01T09:12:09.221Z,11.75
2023-01-01T09:14:36.919Z,11.70
2023-01-01T09:17:04.577Z,11.74
2023-01-01T09:19:32.299Z,11.75
2023-01-01T09:22:01.252Z,11.83
2023-01-01T09:24:28.855Z,11.83
2023-01-01T09:26:56.444Z,11.78
2023-01-01T09:29:24.065Z,11.83
2023-01-01T09:31:51.773Z,11.90
2023-01-01T09:34:19.419Z,11.90
2023-01-01T09:36:47.630Z,12.03
2023-01-01T09:39:17.337Z,12.00
2023-01-01T09:41:55.517Z,12.15
2023-01-01T09:44:36.900Z,12.22
2023-01-01T09:47:05.639Z,12.25
2023-01-01T09:49:35.902Z,12.28
2023-01-01T09:52:05.599Z,12.54
2023-01-01T09:54:35.592Z,12.54
2023-01-01T09:57:04.936Z,12.52
2023-01-01T09:59:32.892Z,12.44
2023-01-01T10:02:05.805Z,12.61
2023-01-01T10:04:45.500Z,12.58
2023-01-01T10:07:19.454Z,12.60
2023-01-01T10:09:53.404Z,12.72
2023-01-01T10:12:24.201Z,12.80
2023-01-01T10:15:00.570Z,12.82
2023-01-01T10:17:34.061Z,12.80
2023-01-01T10:20:04.696Z,12.80
2023-01-01T10:22:36.182Z,12.77
2023-01-01T10:25:15.885Z,12.76
2023-01-01T10:27:47.069Z,12.73
2023-01-01T10:30:17.087Z,12.75
2023-01-01T10:32:48.285Z,12.83
2023-01-01T10:35:17.609Z,12.76
2023-01-01T10:37:46.044Z,12.70
2023-01-01T10:40:20.568Z,12.77
2023-01-01T10:42:50.200Z,12.76
2023-01-01T10:45:20.719Z,12.84
2023-01-01T10:48:14.347Z,12.87
2023-01-01T10:50:43.729Z,12.88
2023-01-01T10:53:22.367Z,12.91
2023-01-01T10:55:52.126Z,12.85
2023-01-01T10:58:35.753Z,12.84
2023-01-01T11:01:04.988Z,12.89
2023-01-01T11:03:33.525Z,12.89
2023-01-01T11:06:14.914Z,13.01
2023-01-01T11:08:48.419Z,13.03
2023-01-01T11:11:23.563Z,12.94
2023-01-01T11:13:52.607Z,13.01
2023-01-01T11:16:20.352Z,13.01
2023-01-01T11:18:48.512Z,13.06
2023-01-01T11:21:22.029Z,13.22
2023-01-01T11:24:18.862Z,13.34
2023-01-01T11:26:54.208Z,13.34
2023-01-01T11:29:26.986Z,13.37
2023-01-01T11:31:54.960Z,13.36
2023-01-01T11:34:29.004Z,13.42
2023-01-01T11:37:09.344Z,13.41
2023-01-01T11:39:38.005Z,13.52
2023-01-01T11:42:08.485Z,13.51
2023-01-01T11:44:39.205Z,13.56
2023-01-01T11:47:08.039Z,13.53
2023-01-01T11:49:35.976Z,13.62
2023-01-01T11:52:33.838Z,13.56
2023-01-01T11:55:04.834Z,13.58
2023-01-01T12:00:26.255Z,13.53
2023-01-01T12:02:58.721Z,13.47
2023-01-01T12:05:29.273Z,13.50
2023-01-01T12:07:59.358Z,13.52
2023-01-01T12:10:28.767Z,13.57
2023-01-01T12:13:02.314Z,13.48
2023-01-01T12:15:36.864Z,13.64
2023-01-01T12:18:07.633Z,13.64
2023-01-01T12:20:37.949Z,13.53
2023-01-01T12:23:05.734Z,13.64
2023-01-01T12:25:37.055Z,13.35
2023-01-01T12:28:16.491Z,13.58
2023-01-01T12:30:50.683Z,13.46
2023-01-01T12:33:30.641Z,13.42
2023-01-01T12:36:07.756Z,13.52
2023-01-01T12:38:54.341Z,13.60
2023-01-01T12:41:29.142Z,13.42
2023-01-01T12:44:02.477Z,13.41
2023-01-01T12:46:44.027Z,13.40
2023-01-01T12:49:25.304Z,13.45
2023-01-01T12:52:03.829Z,13.54
2023-01-01T12:54:58.963Z,13.44
2023-01-01T12:57:31.143Z,13.34
2023-01-01T13:00:02.473Z,13.27
2023-01-01T13:02:32.055Z,13.37
2023-01-01T13:05:04.442Z,13.39
2023-01-01T13:07:33.880Z,13.30
2023-01-01T13:10:06.583Z,13.23
2023-01-01T13:12:37.838Z,13.24
2023-01-01T13:15:35.253Z,13.09
2023-01-01T13:18:06.293Z,13.04
2023-01-01T13:20:35.295Z,12.98
2023-01-01T13:23:02.935Z,13.01
2023-01-01T13:25:30.595Z,12.99
2023-01-01T13:28:06.266Z,12.91
2023-01-01T13:30:49.877Z,12.96
2023-01-01T13:33:26.582Z,12.80
2023-01-01T13:36:28.088Z,12.97
2023-01-01T13:38:56.675Z,12.82
2023-01-01T13:41:31.767Z,12.80
2023-01-01T13:44:13.776Z,12.83
2023-01-01T13:46:52.117Z,12.82
2023-01-01T13:49:27.908Z,12.86
2023-01-01T13:52:05.970Z,12.79
2023-01-01T13:54:57.986Z,12.85
2023-01-01T13:58:01.297Z,12.75
2023-01-01T14:00:34.050Z,12.81
2023-01-01T14:03:03.148Z,12.79
2023-01-01T14:05:34.004Z,12.78
2023-01-01T14:08:01.629Z,12.86
2023-01-01T14:10:31.392Z,12.86
2023-01-01T14:13:16.063Z,12.83
2023-01-01T14:15:53.187Z,12.84
2023-01-01T14:18:22.096Z,12.83
2023-01-01T14:20:52.419Z,12.76
2023-01-01T14:23:23.621Z,12.88
2023-01-01T14:25:51.460Z,12.82
2023-01-01T14:28:21.209Z,12.75
2023-01-01T14:30:48.979Z,12.81
2023-01-01T14:33:24.534Z,12.79
2023-01-01T14:35:54.535Z,12.75
2023-01-01T14:38:27.143Z,12.84
2023-01-01T14:41:03.543Z,12.77
2023-01-01T14:43:31.350Z,12.70
2023-01-01T14:45:58.990Z,12.71
2023-01-01T14:48:26.648Z,12.74
2023-01-01T14:50:55.760Z,12.75
2023-01-01T14:53:29.637Z,12.71
2023-01-01T14:55:57.419Z,12.74
2023-01-01T14:58:26.683Z,12.59
2023-01-01T15:00:54.551Z,12.51
2023-01-01T15:03:23.617Z,12.57
2023-01-01T15:06:00.591Z,12.50
2023-01-01T15:08:28.220Z,12.59
2023-01-01T15:10:56.460Z,12.57
2023-01-01T15:13:25.554Z,12.41
2023-01-01T15:15:54.555Z,12.49
2023-01-01T15:18:37.137Z,12.51
2023-01-01T15:21:10.911Z,12.38
2023-01-01T15:23:38.627Z,12.58
2023-01-01T15:26:09.874Z,12.42
2023-01-01T15:28:39.238Z,12.38
2023-01-01T15:31:07.076Z,12.36
2023-01-01T15:33:34.783Z,12.26
2023-01-01T15:36:03.877Z,12.24
2023-01-01T15:38:35.284Z,12.11
2023-01-01T15:41:26.667Z,12.36
2023-01-01T15:44:08.034Z,12.22
2023-01-01T15:46:35.662Z,12.31
2023-01-01T15:49:03.622Z,12.25
2023-01-01T15:51:31.287Z,12.20
2023-01-01T15:54:01.579Z,12.26
2023-01-01T15:56:31.371Z,12.33
2023-01-01T15:59:08.411Z,12.35
2023-01-01T16:01:38.578Z,12.30
2023-01-01T16:04:10.108Z,12.23
2023-01-01T16:06:44.194Z,12.18
2023-01-01T16:09:14.217Z,12.26
2023-01-01T16:11:41.809Z,12.24
2023-01-01T16:14:09.677Z,12.29
2023-01-01T16:16:38.778Z,12.25
2023-01-01T16:19:06.668Z,12.30
2023-01-01T16:21:34.950Z,12.32
2023-01-01T16:24:02.541Z,12.33
2023-01-01T16:26:31.441Z,12.25
2023-01-01T16:28:59.029Z,12.08
2023-01-01T16:31:28.768Z,12.19
2023-01-01T16:33:57.722Z,12.28
2023-01-01T16:36:27.312Z,12.20
2023-01-01T16:38:54.999Z,12.15
2023-01-01T16:41:22.978Z,12.10
2023-01-01T16:43:52.015Z,12.10
2023-01-01T16:46:19.635Z,12.07
2023-01-01T16:48:47.247Z,12.09
2023-01-01T16:51:19.041Z,12.07
2023-01-01T16:53:46.793Z,12.02
2023-01-01T16:56:14.901Z,12.04
2023-01-01T16:58:54.060Z,11.99
2023-01-01T17:01:27.383Z,12.01
2023-01-01T17:03:55.223Z,12.04
2023-01-01T17:06:22.832Z,12.03
2023-01-01T17:08:50.400Z,12.04
2023-01-01T17:11:18.960Z,12.07
2023-01-01T17:13:48.192Z,12.08
2023-01-01T17:16:23.267Z,12.05
2023-01-01T17:21:43.700Z,12.07
2023-01-01T17:24:11.324Z,12.11
2023-01-01T17:26:38.980Z,12.11
2023-01-01T17:29:07.464Z,12.15
2023-01-01T17:31:35.233Z,12.12
2023-01-01T17:34:04.330Z,12.17
2023-01-01T17:36:31.946Z,12.14
2023-01-01T17:38:59.552Z,11.96
2023-01-01T17:41:27.225Z,12.07
2023-01-01T17:43:54.790Z,12.07
2023-01-01T17:46:24.012Z,12.10
2023-01-01T17:48:52.545Z,12.17
2023-01-01T17:51:21.925Z,12.15
2023-01-01T17:53:50.046Z,12.12
2023-01-01T17:56:19.407Z,12.09
2023-01-01T17:58:47.803Z,12.10
2023-01-01T18:01:28.189Z,12.06
2023-01-01T18:03:57.300Z,12.07
2023-01-01T18:06:26.681Z,12.07
2023-01-01T18:08:57.889Z,11.89
2023-01-01T18:11:26.046Z,12.03
2023-01-01T18:13:53.709Z,12.07
2023-01-01T18:16:21.413Z,12.08
2023-01-01T18:18:49.078Z,12.04
2023-01-01T18:21:21.833Z,12.05
2023-01-01T18:23:52.478Z,12.03
2023-01-01T18:26:20.753Z,12.04
2023-01-01T18:28:52.364Z,12.02
2023-01-01T18:31:20.292Z,12.03
2023-01-01T18:33:48.341Z,12.01
2023-01-01T18:36:18.430Z,12.01
2023-01-01T18:38:48.693Z,12.06
2023-01-01T18:41:29.291Z,12.11
2023-01-01T18:43:58.350Z,12.15
2023-01-01T18:46:25.961Z,12.25
2023-01-01T18:48:58.866Z,12.21
2023-01-01T18:51:27.104Z,12.20
2023-01-01T18:53:56.950Z,12.19
2023-01-01T18:56:26.353Z,12.27
2023-01-01T18:58:56.042Z,12.20
2023-01-01T19:01:25.201Z,12.19
2023-01-01T19:03:56.010Z,12.16
2023-01-01T19:06:27.635Z,12.16
2023-01-01T19:09:03.814Z,12.15
2023-01-01T19:11:33.061Z,12.10
2023-01-01T19:14:05.461Z,12.10
2023-01-01T19:16:33.188Z,12.12
2023-01-01T19:19:10.220Z,12.16
2023-01-01T19:21:37.853Z,12.06
2023-01-01T19:24:13.628Z,12.04
2023-01-01T19:26:42.712Z,12.03
2023-01-01T19:29:14.877Z,12.07
2023-01-01T19:31:42.610Z,12.09
2023-01-01T19:34:11.030Z,12.08
2023-01-01T19:36:38.671Z,12.00
2023-01-01T19:39:06.368Z,12.07
2023-01-01T19:41:34.370Z,11.95
2023-01-01T19:44:07.238Z,11.93
2023-01-01T19:46:37.537Z,12.06
2023-01-01T19:49:05.333Z,12.01
2023-01-01T19:51:32.915Z,12.05
2023-01-01T19:54:00.617Z,12.07
2023-01-01T19:56:28.242Z,12.14
2023-01-01T19:58:55.904Z,12.07
2023-01-01T20:01:24.936Z,12.02
2023-01-01T20:03:55.347Z,11.94
2023-01-01T20:06:24.247Z,12.05
2023-01-01T20:08:52.071Z,12.05
2023-01-01T20:11:20.632Z,12.01
2023-01-01T20:13:48.487Z,12.00
2023-01-01T20:16:16.126Z,11.95
2023-01-01T20:18:45.652Z,11.94
2023-01-01T20:21:31.050Z,11.93
2023-01-01T20:23:58.897Z,11.93
2023-01-01T20:26:26.550Z,11.90
2023-01-01T20:29:11.960Z,11.94
2023-01-01T20:31:39.594Z,11.96
2023-01-01T20:34:08.606Z,12.00
2023-01-01T20:36:54.077Z,12.02
2023-01-01T20:39:22.479Z,12.07
2023-01-01T20:41:50.148Z,11.87
2023-01-01T20:44:17.945Z,11.99
2023-01-01T20:46:47.896Z,11.88
2023-01-01T20:49:17.933Z,11.84
2023-01-01T20:51:45.713Z,11.93
2023-01-01T20:54:13.351Z,11.93
2023-01-01T20:56:40.926Z,11.86
2023-01-01T20:59:33.622Z,11.77
2023-01-01T21:01:56.511Z,11.84
2023-01-01T21:04:25.507Z,11.81
2023-01-01T21:06:53.228Z,11.75
2023-01-01T21:09:22.785Z,11.84
2023-01-01T21:11:50.405Z,11.76
2023-01-01T21:14:18.592Z,11.74
2023-01-01T21:16:46.404Z,11.74
2023-01-01T21:19:14.110Z,11.77
2023-01-01T21:21:46.049Z,11.98
2023-01-01T21:24:22.560Z,11.87
2023-01-01T21:26:51.496Z,11.85
2023-01-01T21:29:21.152Z,11.85
2023-01-01T21:31:52.158Z,11.92
2023-01-01T21:34:31.609Z,11.86
2023-01-01T21:37:03.217Z,11.99
2023-01-01T21:39:32.072Z,11.95
2023-01-01T21:42:15.598Z,11.82
2023-01-01T21:44:43.111Z,11.86
2023-01-01T21:47:18.587Z,11.89
2023-01-01T21:49:46.101Z,11.90
2023-01-01T21:52:19.916Z,11.87
2023-01-01T21:54:48.913Z,11.87
2023-01-01T21:57:19.805Z,11.93
2023-01-01T21:59:48.079Z,11.91
2023-01-01T22:02:33.362Z,11.86
2023-01-01T22:05:02.966Z,11.90
2023-01-01T22:10:24.951Z,11.99
2023-01-01T22:12:57.040Z,12.09
2023-01-01T22:15:29.811Z,12.11
2023-01-01T22:18:22.835Z,12.11
2023-01-01T22:20:50.584Z,12.04
2023-01-01T22:23:27.467Z,12.08
2023-01-01T22:25:55.046Z,12.10
2023-01-01T22:28:24.504Z,12.07
2023-01-01T22:30:54.856Z,12.02
2023-01-01T22:33:27.738Z,11.94
2023-01-01T22:35:56.350Z,11.91
2023-01-01T22:38:31.214Z,12.05
2023-01-01T22:40:58.902Z,12.05
2023-01-01T22:43:28.830Z,12.03
2023-01-01T22:45:56.490Z,12.12
2023-01-01T22:48:27.130Z,12.09
2023-01-01T22:50:55.071Z,12.16
2023-01-01T22:53:22.622Z,12.17
2023-01-01T22:55:51.550Z,12.11
2023-01-01T22:58:19.216Z,12.20
2023-01-01T23:00:46.807Z,12.15
2023-01-01T23:03:14.452Z,12.19
2023-01-01T23:05:42.157Z,12.10
2023-01-01T23:08:09.717Z,12.14
2023-01-01T23:10:37.563Z,12.17
2023-01-01T23:13:20.440Z,12.15
2023-01-01T23:16:03.175Z,12.25
2023-01-01T23:18:32.390Z,12.23
2023-01-01T23:21:01.267Z,12.28
2023-01-01T23:23:30.179Z,12.28
2023-01-01T23:25:58.639Z,12.25
2023-01-01T23:28:28.496Z,12.30
2023-01-01T23:31:01.547Z,12.34
2023-01-01T23:33:30.080Z,12.26
2023-01-01T23:35:58.084Z,12.21
2023-01-01T23:38:26.316Z,12.18
2023-01-01T23:40:54.017Z,12.07
2023-01-01T23:43:21.894Z,12.06
2023-01-01T23:45:51.664Z,12.15
2023-01-01T23:48:19.998Z,12.19
2023-01-01T23:50:48.320Z,12.16
2023-01-01T23:53:16.290Z,12.15
2023-01-01T23:55:44.030Z,12.14
2023-01-01T23:58:11.786Z,12.24
